createdAt,value
2018-03-01T00:00:25.514Z,0
2018-03-01T00:01:25.708Z,0
2018-03-01T00:02:25.465Z,0
2018-03-01T00:03:25.677Z,0
2018-03-01T00:04:25.655Z,0
2018-03-01T00:05:25.691Z,0
2018-03-01T00:06:25.379Z,0
2018-03-01T00:07:25.627Z,0
2018-03-01T00:08:25.363Z,0
2018-03-01T00:09:25.338Z,0
2018-03-01T00:10:25.578Z,0
2018-03-01T00:11:25.072Z,0
2018-03-01T00:12:25.542Z,0
2018-03-01T00:13:25.288Z,0
2018-03-01T00:14:25.503Z,0
2018-03-01T00:15:25.490Z,0
2018-03-01T00:16:25.226Z,0
2018-03-01T00:17:25.477Z,0
2018-03-01T00:18:24.664Z,0
2018-03-01T00:19:24.911Z,0
2018-03-01T00:20:25.421Z,0
2018-03-01T00:21:24.873Z,0
2018-03-01T00:22:25.524Z,0
2018-03-01T00:23:25.414Z,0
2018-03-01T00:24:25.340Z,0
2018-03-01T00:25:25.058Z,0
2018-03-01T00:26:25.069Z,0
2018-03-01T00:27:25.301Z,0
2018-03-01T00:28:25.028Z,0
2018-03-01T00:29:25.271Z,0
2018-03-01T00:30:25.239Z,0
2018-03-01T00:31:25.234Z,0
2018-03-01T00:32:24.955Z,0
2018-03-01T00:33:24.940Z,0
2018-03-01T00:34:24.675Z,0
2018-03-01T00:35:25.151Z,0
2018-03-01T00:36:24.880Z,0
2018-03-01T00:37:25.119Z,0
2018-03-01T00:38:24.855Z,0
2018-03-01T00:39:25.090Z,0
2018-03-01T00:40:25.072Z,0
2018-03-01T00:41:25.064Z,0
2018-03-01T00:42:24.543Z,0
2018-03-01T00:43:24.530Z,0
2018-03-01T00:44:24.787Z,0
2018-03-01T00:45:24.485Z,0
2018-03-01T00:46:24.976Z,0
2018-03-01T00:47:24.957Z,0
2018-03-01T00:48:24.944Z,0
2018-03-01T00:49:24.680Z,0
2018-03-01T00:50:24.171Z,0
2018-03-01T00:51:24.637Z,0
2018-03-01T00:52:24.875Z,0
2018-03-01T00:53:24.881Z,0
2018-03-01T00:54:24.858Z,0
2018-03-01T00:55:26.884Z,0
2018-03-01T00:56:24.557Z,0
2018-03-01T00:57:24.799Z,0
2018-03-01T00:58:24.802Z,0
2018-03-01T00:59:24.762Z,0
2018-03-01T01:00:24.489Z,0
2018-03-01T01:01:24.481Z,0
2018-03-01T01:02:24.716Z,0
2018-03-01T01:03:24.456Z,0
2018-03-01T01:04:24.428Z,0
2018-03-01T01:05:24.663Z,0
2018-03-01T01:06:24.394Z,0
2018-03-01T01:07:23.875Z,0
2018-03-01T01:08:24.361Z,0
2018-03-01T01:09:24.092Z,0
2018-03-01T01:10:26.234Z,0
2018-03-01T01:11:24.569Z,0
2018-03-01T01:12:24.750Z,0
2018-03-01T01:13:24.287Z,0
2018-03-01T01:14:24.290Z,0
2018-03-01T01:15:24.507Z,0
2018-03-01T01:16:24.239Z,0
2018-03-01T01:17:24.219Z,0
2018-03-01T01:18:24.449Z,0
2018-03-01T01:19:24.192Z,0
2018-03-01T01:20:24.420Z,0
2018-03-01T01:21:24.409Z,0
2018-03-01T01:22:24.152Z,0
2018-03-01T01:23:24.370Z,0
2018-03-01T01:24:24.154Z,0
2018-03-01T01:25:24.344Z,0
2018-03-01T01:26:24.328Z,0
2018-03-01T01:27:24.326Z,0
2018-03-01T01:28:24.048Z,0
2018-03-01T01:29:24.031Z,0
2018-03-01T01:30:24.260Z,0
2018-03-01T01:31:23.740Z,0
2018-03-01T01:32:24.223Z,0
2018-03-01T01:33:23.955Z,0
2018-03-01T01:34:23.947Z,0
2018-03-01T01:35:23.935Z,0
2018-03-01T01:36:23.665Z,0
2018-03-01T01:37:24.202Z,0
2018-03-01T01:38:23.886Z,0
2018-03-01T01:39:23.885Z,0
2018-03-01T01:40:24.126Z,0
2018-03-01T01:41:23.830Z,0
2018-03-01T01:42:24.070Z,0
2018-03-01T01:43:24.065Z,0
2018-03-01T01:44:24.035Z,0
2018-03-01T01:45:24.022Z,0
2018-03-01T01:46:23.737Z,0
2018-03-01T01:47:23.979Z,0
2018-03-01T01:48:23.504Z,0
2018-03-01T01:49:23.954Z,0
2018-03-01T01:50:23.672Z,0
2018-03-01T01:51:23.914Z,0
2018-03-01T01:52:23.386Z,0
2018-03-01T01:53:23.621Z,0
2018-03-01T01:54:23.612Z,0
2018-03-01T01:55:23.857Z,0
2018-03-01T01:56:24.268Z,0
2018-03-01T01:57:23.807Z,0
2018-03-01T01:58:23.566Z,0
2018-03-01T01:59:23.514Z,0
2018-03-01T02:00:23.494Z,0
2018-03-01T02:01:23.742Z,0
2018-03-01T02:02:23.737Z,0
2018-03-01T02:03:23.439Z,0
2018-03-01T02:04:23.689Z,0
2018-03-01T02:05:23.679Z,0
2018-03-01T02:06:23.396Z,0
2018-03-01T02:07:23.632Z,0
2018-03-01T02:08:23.376Z,0
2018-03-01T02:09:23.084Z,0
2018-03-01T02:10:23.602Z,0
2018-03-01T02:11:23.082Z,0
2018-03-01T02:12:23.562Z,0
2018-03-01T02:13:23.045Z,0
2018-03-01T02:14:23.016Z,0
2018-03-01T02:15:23.268Z,0
2018-03-01T02:16:23.485Z,0
2018-03-01T02:17:23.234Z,0
2018-03-01T02:18:23.219Z,0
2018-03-01T02:19:23.440Z,0
2018-03-01T02:20:23.577Z,0
2018-03-01T02:21:23.147Z,0
2018-03-01T02:22:23.394Z,0
2018-03-01T02:23:23.112Z,0
2018-03-01T02:24:23.339Z,0
2018-03-01T02:25:23.514Z,0
2018-03-01T02:26:23.100Z,0
2018-03-01T02:27:23.049Z,0
2018-03-01T02:28:23.020Z,0
2018-03-01T02:29:23.024Z,0
2018-03-01T02:30:24.108Z,0
2018-03-01T02:31:23.003Z,0
2018-03-01T02:32:23.243Z,0
2018-03-01T02:33:23.206Z,0
2018-03-01T02:34:23.193Z,0
2018-03-01T02:35:23.171Z,0
2018-03-01T02:36:22.637Z,0
2018-03-01T02:37:22.865Z,0
2018-03-01T02:38:23.122Z,0
2018-03-01T02:39:23.118Z,0
2018-03-01T02:40:22.854Z,0
2018-03-01T02:41:23.079Z,0
2018-03-01T02:42:23.104Z,0
2018-03-01T02:43:23.036Z,0
2018-03-01T02:44:22.518Z,0
2018-03-01T02:45:22.884Z,0
2018-03-01T02:46:22.994Z,0
2018-03-01T02:47:22.955Z,0
2018-03-01T02:48:22.936Z,0
2018-03-01T02:49:22.923Z,0
2018-03-01T02:50:23.072Z,0
2018-03-01T02:51:22.885Z,0
2018-03-01T02:52:22.886Z,0
2018-03-01T02:53:22.910Z,0
2018-03-01T02:54:22.959Z,0
2018-03-01T02:55:23.175Z,0
2018-03-01T02:56:22.809Z,0
2018-03-01T02:57:22.795Z,0
2018-03-01T02:58:22.769Z,0
2018-03-01T02:59:22.497Z,0
2018-03-01T03:00:23.191Z,0
2018-03-01T03:01:22.718Z,0
2018-03-01T03:02:22.446Z,0
2018-03-01T03:03:21.925Z,0
2018-03-01T03:04:22.660Z,0
2018-03-01T03:05:23.014Z,0
2018-03-01T03:06:22.121Z,0
2018-03-01T03:07:22.620Z,0
2018-03-01T03:08:22.596Z,0
2018-03-01T03:09:22.590Z,0
2018-03-01T03:10:22.799Z,0
2018-03-01T03:11:22.555Z,0
2018-03-01T03:12:22.273Z,0
2018-03-01T03:13:22.003Z,0
2018-03-01T03:14:22.494Z,0
2018-03-01T03:15:22.729Z,0
2018-03-01T03:16:22.455Z,0
2018-03-01T03:17:22.443Z,0
2018-03-01T03:18:21.918Z,0
2018-03-01T03:19:22.410Z,0
2018-03-01T03:20:22.215Z,0
2018-03-01T03:21:22.372Z,0
2018-03-01T03:22:22.373Z,0
2018-03-01T03:23:22.089Z,0
2018-03-01T03:24:22.385Z,0
2018-03-01T03:25:22.768Z,0
2018-03-01T03:26:21.783Z,0
2018-03-01T03:27:21.819Z,0
2018-03-01T03:28:22.374Z,0
2018-03-01T03:29:22.236Z,0
2018-03-01T03:30:22.707Z,0
2018-03-01T03:31:21.704Z,0
2018-03-01T03:32:22.182Z,0
2018-03-01T03:33:21.658Z,0
2018-03-01T03:34:22.152Z,0
2018-03-01T03:35:22.875Z,0
2018-03-01T03:36:21.864Z,0
2018-03-01T03:37:21.852Z,0
2018-03-01T03:38:22.080Z,0
2018-03-01T03:39:22.061Z,0
2018-03-01T03:40:22.443Z,0
2018-03-01T03:41:21.777Z,0
2018-03-01T03:42:21.755Z,0
2018-03-01T03:43:21.994Z,0
2018-03-01T03:44:21.732Z,0
2018-03-01T03:45:22.224Z,0
2018-03-01T03:46:21.703Z,0
2018-03-01T03:47:21.692Z,0
2018-03-01T03:48:21.675Z,0
2018-03-01T03:49:21.397Z,0
2018-03-01T03:50:22.274Z,0
2018-03-01T03:51:21.614Z,0
2018-03-01T03:52:21.611Z,0
2018-03-01T03:53:21.406Z,0
2018-03-01T03:54:21.316Z,0
2018-03-01T03:55:22.784Z,0
2018-03-01T03:56:21.798Z,0
2018-03-01T03:57:21.263Z,0
2018-03-01T03:58:23.602Z,0
2018-03-01T03:59:21.731Z,0
2018-03-01T04:00:21.836Z,0
2018-03-01T04:01:21.444Z,0
2018-03-01T04:02:21.431Z,0
2018-03-01T04:03:21.411Z,0
2018-03-01T04:04:21.136Z,0
2018-03-01T04:05:21.992Z,0
2018-03-01T04:06:21.374Z,0
2018-03-01T04:07:21.596Z,0
2018-03-01T04:08:21.329Z,0
2018-03-01T04:09:21.557Z,0
2018-03-01T04:10:21.893Z,0
2018-03-01T04:11:21.278Z,0
2018-03-01T04:12:21.267Z,0
2018-03-01T04:13:21.245Z,0
2018-03-01T04:14:21.221Z,0
2018-03-01T04:15:21.685Z,0
2018-03-01T04:16:21.447Z,0
2018-03-01T04:17:21.199Z,0
2018-03-01T04:18:21.416Z,0
2018-03-01T04:19:20.887Z,0
2018-03-01T04:20:21.442Z,0
2018-03-01T04:21:21.174Z,0
2018-03-01T04:22:20.849Z,0
2018-03-01T04:23:21.368Z,0
2018-03-01T04:24:20.816Z,0
2018-03-01T04:25:21.360Z,0
2018-03-01T04:26:21.039Z,0
2018-03-01T04:27:21.278Z,0
2018-03-01T04:28:22.253Z,0
2018-03-01T04:29:20.982Z,0
2018-03-01T04:30:21.519Z,0
2018-03-01T04:31:20.695Z,0
2018-03-01T04:32:21.244Z,0
2018-03-01T04:33:21.164Z,0
2018-03-01T04:34:20.924Z,0
2018-03-01T04:35:21.974Z,0
2018-03-01T04:36:21.110Z,0
2018-03-01T04:37:20.876Z,0
2018-03-01T04:38:20.581Z,0
2018-03-01T04:39:21.062Z,0
2018-03-01T04:40:21.853Z,0
2018-03-01T04:41:20.782Z,0
2018-03-01T04:42:21.027Z,0
2018-03-01T04:43:22.898Z,0
2018-03-01T04:44:20.733Z,0
2018-03-01T04:45:20.962Z,0
2018-03-01T04:46:20.698Z,0
2018-03-01T04:47:20.950Z,0
2018-03-01T04:48:20.931Z,0
2018-03-01T04:49:20.902Z,0
2018-03-01T04:50:21.294Z,0
2018-03-01T04:51:20.368Z,0
2018-03-01T04:52:20.347Z,0
2018-03-01T04:53:20.573Z,0
2018-03-01T04:54:20.558Z,0
2018-03-01T04:55:21.167Z,0
2018-03-01T04:56:20.526Z,0
2018-03-01T04:57:20.520Z,0
2018-03-01T04:58:21.502Z,0
2018-03-01T04:59:20.750Z,0
2018-03-01T05:00:21.195Z,0
2018-03-01T05:01:20.698Z,0
2018-03-01T05:02:20.458Z,0
2018-03-01T05:03:20.402Z,0
2018-03-01T05:04:20.653Z,0
2018-03-01T05:05:21.228Z,0
2018-03-01T05:06:20.378Z,0
2018-03-01T05:07:20.349Z,0
2018-03-01T05:08:20.325Z,0
2018-03-01T05:09:20.301Z,0
2018-03-01T05:10:21.123Z,0
2018-03-01T05:11:20.539Z,0
2018-03-01T05:12:20.508Z,0
2018-03-01T05:13:20.503Z,0
2018-03-01T05:14:20.220Z,0
2018-03-01T05:15:21.509Z,0
2018-03-01T05:16:20.499Z,0
2018-03-01T05:17:20.189Z,0
2018-03-01T05:18:20.157Z,0
2018-03-01T05:19:20.397Z,0
2018-03-01T05:20:20.580Z,0
2018-03-01T05:21:20.135Z,0
2018-03-01T05:22:20.344Z,0
2018-03-01T05:23:19.821Z,0
2018-03-01T05:24:20.315Z,0
2018-03-01T05:25:21.119Z,0
2018-03-01T05:26:19.784Z,0
2018-03-01T05:27:20.005Z,0
2018-03-01T05:28:19.996Z,0
2018-03-01T05:29:20.535Z,0
2018-03-01T05:30:20.475Z,0
2018-03-01T05:31:20.260Z,0
2018-03-01T05:32:19.937Z,0
2018-03-01T05:33:19.910Z,0
2018-03-01T05:34:20.166Z,0
2018-03-01T05:35:21.391Z,0
2018-03-01T05:36:20.144Z,0
2018-03-01T05:37:20.124Z,0
2018-03-01T05:38:20.081Z,0
2018-03-01T05:39:20.065Z,4
2018-03-01T05:40:20.341Z,4
2018-03-01T05:41:19.518Z,4
2018-03-01T05:42:20.018Z,0
2018-03-01T05:43:19.992Z,4
2018-03-01T05:44:19.985Z,4
2018-03-01T05:45:21.209Z,4
2018-03-01T05:46:19.687Z,4
2018-03-01T05:47:19.973Z,4
2018-03-01T05:48:19.666Z,8
2018-03-01T05:49:19.641Z,8
2018-03-01T05:50:20.527Z,12
2018-03-01T05:51:19.863Z,12
2018-03-01T05:52:19.603Z,16
2018-03-01T05:53:19.588Z,16
2018-03-01T05:54:19.814Z,20
2018-03-01T05:55:20.637Z,20
2018-03-01T05:56:19.529Z,28
2018-03-01T05:57:19.524Z,32
2018-03-01T05:58:19.755Z,32
2018-03-01T05:59:20.492Z,36
2018-03-01T06:00:20.463Z,40
2018-03-01T06:01:19.453Z,44
2018-03-01T06:02:19.423Z,56
2018-03-01T06:03:19.679Z,56
2018-03-01T06:04:19.142Z,64
2018-03-01T06:05:20.646Z,72
2018-03-01T06:06:19.373Z,76
2018-03-01T06:07:19.356Z,84
2018-03-01T06:08:19.337Z,92
2018-03-01T06:09:19.321Z,100
2018-03-01T06:10:20.266Z,112
2018-03-01T06:11:19.558Z,124
2018-03-01T06:12:19.268Z,132
2018-03-01T06:13:19.516Z,144
2018-03-01T06:14:19.242Z,152
2018-03-01T06:15:20.727Z,168
2018-03-01T06:16:19.459Z,176
2018-03-01T06:17:18.936Z,192
2018-03-01T06:18:19.163Z,204
2018-03-01T06:19:18.893Z,216
2018-03-01T06:20:20.206Z,224
2018-03-01T06:21:19.119Z,236
2018-03-01T06:22:18.849Z,244
2018-03-01T06:23:19.339Z,256
2018-03-01T06:24:19.325Z,268
2018-03-01T06:25:20.478Z,276
2018-03-01T06:26:19.295Z,284
2018-03-01T06:27:19.287Z,296
2018-03-01T06:28:19.023Z,308
2018-03-01T06:29:19.243Z,320
2018-03-01T06:30:21.554Z,332
2018-03-01T06:31:18.695Z,344
2018-03-01T06:32:19.228Z,360
2018-03-01T06:33:19.226Z,376
2018-03-01T06:34:18.909Z,396
2018-03-01T06:35:20.221Z,416
2018-03-01T06:36:19.128Z,436
2018-03-01T06:37:19.122Z,456
2018-03-01T06:38:19.111Z,480
2018-03-01T06:39:19.089Z,500
2018-03-01T06:40:19.771Z,524
2018-03-01T06:41:18.545Z,548
2018-03-01T06:42:19.039Z,568
2018-03-01T06:43:19.011Z,592
2018-03-01T06:44:19.001Z,608
2018-03-01T06:45:23.301Z,624
2018-03-01T06:46:19.014Z,636
2018-03-01T06:47:18.225Z,652
2018-03-01T06:48:18.693Z,672
2018-03-01T06:49:18.405Z,688
2018-03-01T06:50:20.556Z,708
2018-03-01T06:51:18.624Z,732
2018-03-01T06:52:18.361Z,756
2018-03-01T06:53:18.590Z,784
2018-03-01T06:54:18.832Z,812
2018-03-01T06:55:19.582Z,832
2018-03-01T06:56:18.555Z,860
2018-03-01T06:57:18.295Z,880
2018-03-01T06:58:18.521Z,904
2018-03-01T06:59:18.493Z,928
2018-03-01T07:00:20.564Z,960
2018-03-01T07:01:18.481Z,992
2018-03-01T07:02:18.746Z,1012
2018-03-01T07:03:18.432Z,1044
2018-03-01T07:04:18.417Z,1080
2018-03-01T07:05:20.477Z,1128
2018-03-01T07:06:18.387Z,1184
2018-03-01T07:07:18.144Z,1248
2018-03-01T07:08:18.102Z,1312
2018-03-01T07:09:18.593Z,1384
2018-03-01T07:10:19.840Z,1444
2018-03-01T07:11:18.423Z,1508
2018-03-01T07:12:18.558Z,1568
2018-03-01T07:13:18.266Z,1604
2018-03-01T07:14:18.510Z,1624
2018-03-01T07:15:18.735Z,1620
2018-03-01T07:16:21.474Z,1608
2018-03-01T07:17:18.225Z,1612
2018-03-01T07:18:17.940Z,1612
2018-03-01T07:19:18.192Z,1632
2018-03-01T07:20:19.111Z,1668
2018-03-01T07:21:17.892Z,1732
2018-03-01T07:22:18.151Z,1844
2018-03-01T07:23:18.113Z,1964
2018-03-01T07:24:18.128Z,2080
2018-03-01T07:25:19.273Z,2184
2018-03-01T07:26:18.263Z,2280
2018-03-01T07:27:18.309Z,2352
2018-03-01T07:28:18.287Z,2388
2018-03-01T07:29:18.017Z,2404
2018-03-01T07:30:19.202Z,2396
2018-03-01T07:31:18.841Z,2388
2018-03-01T07:32:18.235Z,2384
2018-03-01T07:33:17.449Z,2416
2018-03-01T07:34:17.951Z,2444
2018-03-01T07:35:19.037Z,2488
2018-03-01T07:36:18.174Z,2524
2018-03-01T07:37:17.896Z,2548
2018-03-01T07:38:17.874Z,2580
2018-03-01T07:39:18.109Z,2620
2018-03-01T07:40:18.462Z,2680
2018-03-01T07:41:17.576Z,2756
2018-03-01T07:42:17.820Z,2840
2018-03-01T07:43:17.801Z,2904
2018-03-01T07:44:17.779Z,2980
2018-03-01T07:45:18.615Z,3064
2018-03-01T07:46:18.751Z,3160
2018-03-01T07:47:17.737Z,3272
2018-03-01T07:48:17.479Z,3384
2018-03-01T07:49:17.710Z,3484
2018-03-01T07:50:19.098Z,3596
2018-03-01T07:51:17.926Z,3704
2018-03-01T07:52:17.666Z,3780
2018-03-01T07:53:17.898Z,3852
2018-03-01T07:54:17.894Z,3960
2018-03-01T07:55:19.352Z,4036
2018-03-01T07:56:17.978Z,4116
2018-03-01T07:57:17.855Z,4184
2018-03-01T07:58:17.819Z,4256
2018-03-01T07:59:17.822Z,4340
2018-03-01T08:00:18.964Z,4468
2018-03-01T08:01:17.522Z,4588
2018-03-01T08:02:22.110Z,4772
2018-03-01T08:03:17.752Z,5044
2018-03-01T08:04:17.749Z,5560
2018-03-01T08:05:18.161Z,5756
2018-03-01T08:06:17.725Z,6300
2018-03-01T08:07:17.686Z,6232
2018-03-01T08:08:17.417Z,6632
2018-03-01T08:09:17.661Z,6892
2018-03-01T08:10:18.520Z,7172
2018-03-01T08:11:17.754Z,7352
2018-03-01T08:12:17.615Z,6456
2018-03-01T08:13:17.356Z,6348
2018-03-01T08:14:17.095Z,7340
2018-03-01T08:15:18.874Z,7564
2018-03-01T08:16:17.329Z,7512
2018-03-01T08:17:17.859Z,7960
2018-03-01T08:18:17.544Z,7752
2018-03-01T08:19:17.290Z,8196
2018-03-01T08:20:18.514Z,7368
2018-03-01T08:21:17.259Z,7124
2018-03-01T08:22:17.489Z,6764
2018-03-01T08:23:17.484Z,6556
2018-03-01T08:24:17.470Z,6400
2018-03-01T08:25:19.012Z,6328
2018-03-01T08:26:17.452Z,6288
2018-03-01T08:27:17.447Z,6220
2018-03-01T08:28:17.173Z,6160
2018-03-01T08:29:17.166Z,6112
2018-03-01T08:30:18.116Z,6076
2018-03-01T08:31:17.392Z,6028
2018-03-01T08:32:16.869Z,5968
2018-03-01T08:33:17.112Z,5912
2018-03-01T08:34:17.350Z,5884
2018-03-01T08:35:18.060Z,5888
2018-03-01T08:36:17.337Z,5896
2018-03-01T08:37:16.823Z,5904
2018-03-01T08:38:17.306Z,5912
2018-03-01T08:39:17.045Z,5904
2018-03-01T08:40:17.939Z,5948
2018-03-01T08:41:49.119Z,6052
2018-03-01T08:42:17.000Z,6088
2018-03-01T08:43:16.743Z,6164
2018-03-01T08:44:16.979Z,6228
2018-03-01T08:45:18.866Z,6260
2018-03-01T08:46:16.943Z,6220
2018-03-01T08:47:16.697Z,6168
2018-03-01T08:48:17.219Z,6104
2018-03-01T08:49:16.909Z,6060
2018-03-01T08:50:18.440Z,6040
2018-03-01T08:51:17.198Z,6016
2018-03-01T08:52:16.617Z,5980
2018-03-01T08:53:16.856Z,5984
2018-03-01T08:54:17.113Z,5936
2018-03-01T08:55:17.756Z,5912
2018-03-01T08:56:17.113Z,5888
2018-03-01T08:57:17.070Z,5900
2018-03-01T08:58:17.046Z,5960
2018-03-01T08:59:17.032Z,6024
2018-03-01T09:00:17.758Z,6104
2018-03-01T09:01:16.513Z,6164
2018-03-01T09:02:16.744Z,6204
2018-03-01T09:03:23.083Z,6216
2018-03-01T09:04:16.721Z,6204
2018-03-01T09:05:17.956Z,6216
2018-03-01T09:06:16.484Z,6248
2018-03-01T09:07:16.693Z,6276
2018-03-01T09:08:16.913Z,6316
2018-03-01T09:09:16.908Z,6360
2018-03-01T09:10:18.751Z,6416
2018-03-01T09:11:16.368Z,6448
2018-03-01T09:12:16.389Z,6464
2018-03-01T09:13:16.604Z,6496
2018-03-01T09:14:16.591Z,6560
2018-03-01T09:15:18.259Z,6640
2018-03-01T09:16:16.807Z,6720
2018-03-01T09:17:16.546Z,6808
2018-03-01T09:18:16.574Z,6884
2018-03-01T09:19:16.263Z,6940
2018-03-01T09:20:17.812Z,6956
2018-03-01T09:21:16.479Z,6940
2018-03-01T09:22:16.474Z,6912
2018-03-01T09:23:16.724Z,6868
2018-03-01T09:24:16.460Z,6856
2018-03-01T09:25:17.788Z,6892
2018-03-01T09:26:16.478Z,6940
2018-03-01T09:27:16.681Z,6984
2018-03-01T09:28:16.401Z,7020
2018-03-01T09:29:16.648Z,7052
2018-03-01T09:30:17.496Z,7060
2018-03-01T09:31:16.360Z,7028
2018-03-01T09:32:16.640Z,7000
2018-03-01T09:33:22.238Z,6964
2018-03-01T09:34:16.334Z,6896
2018-03-01T09:35:18.067Z,6836
2018-03-01T09:36:16.552Z,6824
2018-03-01T09:37:16.625Z,6816
2018-03-01T09:38:16.014Z,6804
2018-03-01T09:39:16.001Z,6796
2018-03-01T09:40:17.443Z,6868
2018-03-01T09:41:16.499Z,6940
2018-03-01T09:42:16.484Z,6956
2018-03-01T09:43:16.204Z,6948
2018-03-01T09:44:16.204Z,7004
2018-03-01T09:45:17.791Z,7120
2018-03-01T09:46:16.450Z,7192
2018-03-01T09:47:16.166Z,7424
2018-03-01T09:48:16.157Z,7576
2018-03-01T09:49:16.703Z,7280
2018-03-01T09:50:17.735Z,7288
2018-03-01T09:51:16.380Z,7552
2018-03-01T09:52:16.380Z,8092
2018-03-01T09:53:15.851Z,7768
2018-03-01T09:54:16.351Z,7540
2018-03-01T09:55:17.645Z,7572
2018-03-01T09:56:15.844Z,7828
2018-03-01T09:57:16.048Z,7904
2018-03-01T09:58:16.055Z,8352
2018-03-01T09:59:16.042Z,8724
2018-03-01T10:00:17.157Z,9060
2018-03-01T10:01:15.752Z,9120
2018-03-01T10:02:15.986Z,8280
2018-03-01T10:03:16.235Z,8404
2018-03-01T10:04:20.506Z,8900
2018-03-01T10:05:17.358Z,9068
2018-03-01T10:06:15.929Z,9424
2018-03-01T10:07:16.335Z,9132
2018-03-01T10:08:15.907Z,8624
2018-03-01T10:09:15.896Z,8488
2018-03-01T10:10:17.402Z,7628
2018-03-01T10:11:16.125Z,7444
2018-03-01T10:12:16.149Z,6944
2018-03-01T10:13:16.129Z,6760
2018-03-01T10:14:15.838Z,7344
2018-03-01T10:15:17.172Z,7264
2018-03-01T10:16:16.071Z,8264
2018-03-01T10:17:16.061Z,8148
2018-03-01T10:18:16.047Z,7216
2018-03-01T10:19:15.521Z,7048
2018-03-01T10:20:18.040Z,6864
2018-03-01T10:21:16.020Z,7012
2018-03-01T10:22:15.742Z,7260
2018-03-01T10:23:15.725Z,7940
2018-03-01T10:24:15.978Z,7376
2018-03-01T10:25:17.301Z,7224
2018-03-01T10:26:15.954Z,7828
2018-03-01T10:27:15.686Z,7760
2018-03-01T10:28:15.684Z,8512
2018-03-01T10:57:34.024Z,7696
2018-03-01T10:58:32.181Z,6584
2018-03-01T10:59:32.082Z,7440
2018-03-01T11:00:31.900Z,8088
2018-03-01T11:01:31.887Z,8192
2018-03-01T11:02:31.875Z,7924
2018-03-01T11:03:32.104Z,7984
2018-03-01T11:04:32.095Z,8008
2018-03-01T11:05:31.842Z,7964
2018-03-01T11:06:31.802Z,7940
2018-03-01T11:07:31.533Z,7924
2018-03-01T11:08:32.027Z,7872
2018-03-01T11:09:31.515Z,7788
2018-03-01T11:10:31.771Z,7688
2018-03-01T11:11:31.489Z,7596
2018-03-01T11:12:33.397Z,7552
2018-03-01T11:13:31.712Z,7476
2018-03-01T11:14:31.456Z,7416
2018-03-01T11:15:32.003Z,6948
2018-03-01T11:16:31.934Z,7396
2018-03-01T11:17:31.921Z,7192
2018-03-01T11:18:31.648Z,7280
2018-03-01T11:19:31.384Z,7300
2018-03-01T11:20:31.632Z,7260
2018-03-01T11:21:31.615Z,7256
2018-03-01T11:22:31.861Z,6360
2018-03-01T11:23:31.903Z,6852
2018-03-01T11:24:31.844Z,7192
2018-03-01T11:25:31.825Z,7168
2018-03-01T11:26:31.552Z,7244
2018-03-01T11:27:31.602Z,7216
2018-03-01T11:28:31.531Z,7228
2018-03-01T11:29:31.790Z,7192
2018-03-01T11:30:31.510Z,7156
2018-03-01T11:31:31.511Z,7124
2018-03-01T11:32:31.489Z,7192
2018-03-01T11:33:31.734Z,7172
2018-03-01T11:34:31.454Z,7144
2018-03-01T11:35:31.188Z,7152
2018-03-01T11:36:31.707Z,7144
2018-03-01T11:37:31.677Z,7124
2018-03-01T11:38:31.678Z,6900
2018-03-01T11:39:31.405Z,7112
2018-03-01T11:40:31.669Z,7092
2018-03-01T11:41:31.643Z,6456
2018-03-01T11:42:34.281Z,6948
2018-03-01T11:43:31.616Z,6628
2018-03-01T11:44:31.594Z,6908
2018-03-01T11:45:31.340Z,6964
2018-03-01T11:46:31.582Z,7004
2018-03-01T11:47:31.567Z,6916
2018-03-01T11:48:31.549Z,7032
2018-03-01T11:49:31.288Z,6912
2018-03-01T11:50:30.769Z,6988
2018-03-01T11:51:31.557Z,7024
2018-03-01T11:52:31.512Z,6984
2018-03-01T11:53:31.253Z,6884
2018-03-01T11:54:30.976Z,6888
2018-03-01T11:55:31.475Z,6856
2018-03-01T11:56:31.461Z,6920
2018-03-01T11:57:31.194Z,6808
2018-03-01T11:58:31.443Z,6816
2018-03-01T11:59:31.428Z,6788
2018-03-01T12:00:31.176Z,6868
2018-03-01T12:01:31.409Z,6848
2018-03-01T12:02:31.403Z,6876
2018-03-01T12:03:31.403Z,6860
2018-03-01T12:04:31.392Z,6740
2018-03-01T12:05:30.851Z,6416
2018-03-01T12:06:31.100Z,6436
2018-03-01T12:07:31.336Z,6288
2018-03-01T12:08:31.338Z,6148
2018-03-01T12:09:31.072Z,6052
2018-03-01T12:10:31.432Z,5832
2018-03-01T12:11:31.302Z,5836
2018-03-01T12:12:31.030Z,5680
2018-03-01T12:13:32.228Z,5692
2018-03-01T12:14:31.265Z,6020
2018-03-01T12:15:30.740Z,5808
2018-03-01T12:16:31.252Z,5660
2018-03-01T12:17:30.985Z,5780
2018-03-01T12:18:30.965Z,5600
2018-03-01T12:19:31.205Z,5804
2018-03-01T12:20:31.208Z,5984
2018-03-01T12:21:31.188Z,5824
2018-03-01T12:22:31.176Z,5928
2018-03-01T12:23:31.158Z,5872
2018-03-01T12:24:30.650Z,5612
2018-03-01T12:25:31.140Z,5888
2018-03-01T12:26:30.891Z,5612
2018-03-01T12:27:31.123Z,5616
2018-03-01T12:28:33.808Z,5572
2018-03-01T12:29:30.842Z,5536
2018-03-01T12:30:30.833Z,5636
2018-03-01T12:31:30.562Z,5728
2018-03-01T12:32:31.062Z,5728
2018-03-01T12:33:31.104Z,5772
2018-03-01T12:34:31.037Z,5772
2018-03-01T12:35:30.772Z,5716
2018-03-01T12:36:31.024Z,5760
2018-03-01T12:37:30.749Z,5804
2018-03-01T12:38:31.003Z,5872
2018-03-01T12:39:30.469Z,5912
2018-03-01T12:40:30.973Z,5892
2018-03-01T12:41:30.962Z,5920
2018-03-01T12:42:30.947Z,5936
2018-03-01T12:43:31.342Z,5992
2018-03-01T12:44:35.231Z,6168
2018-03-01T12:45:30.658Z,6368
2018-03-01T12:46:30.657Z,6412
2018-03-01T12:47:30.647Z,6496
2018-03-01T12:48:30.639Z,6572
2018-03-01T12:49:30.623Z,6652
2018-03-01T12:50:30.614Z,6760
2018-03-01T12:51:30.863Z,6796
2018-03-01T12:52:30.583Z,6900
2018-03-01T12:53:30.576Z,6916
2018-03-01T12:54:30.574Z,7004
2018-03-01T12:55:30.555Z,7164
2018-03-01T12:56:30.539Z,7292
2018-03-01T12:57:30.783Z,7472
2018-03-01T12:58:30.771Z,7764
2018-03-01T12:59:30.301Z,8012
2018-03-01T13:00:30.756Z,8228
2018-03-01T13:01:30.481Z,8476
2018-03-01T13:02:30.477Z,8672
2018-03-01T13:03:30.724Z,9320
2018-03-01T13:04:30.461Z,9220
2018-03-01T13:05:30.706Z,8796
2018-03-01T13:06:30.689Z,8528
2018-03-01T13:07:30.686Z,8128
2018-03-01T13:08:30.418Z,7892
2018-03-01T13:09:30.424Z,7692
2018-03-01T13:10:30.398Z,7620
2018-03-01T13:11:30.637Z,7884
2018-03-01T13:12:30.423Z,7720
2018-03-01T13:13:30.108Z,7844
2018-03-01T13:14:30.922Z,8136
2018-03-01T13:15:30.621Z,7988
2018-03-01T13:16:30.588Z,7776
2018-03-01T13:17:30.581Z,7736
2018-03-01T13:18:30.330Z,7576
2018-03-01T13:19:30.574Z,7404
2018-03-01T13:20:30.300Z,6988
2018-03-01T13:21:30.550Z,6624
2018-03-01T13:22:30.536Z,6196
2018-03-01T13:23:30.526Z,5840
2018-03-01T13:24:30.535Z,5836
2018-03-01T13:25:30.500Z,5988
2018-03-01T13:26:30.512Z,6024
2018-03-01T13:27:30.352Z,5992
2018-03-01T13:28:30.478Z,5920
2018-03-01T13:29:31.274Z,5824
2018-03-01T13:30:30.201Z,5816
2018-03-01T13:31:29.689Z,5792
2018-03-01T13:32:29.936Z,5716
2018-03-01T13:33:30.170Z,5588
2018-03-01T13:34:29.914Z,5552
2018-03-01T13:35:30.455Z,5524
2018-03-01T13:36:30.138Z,5560
2018-03-01T13:37:30.386Z,5668
2018-03-01T13:38:29.879Z,5848
2018-03-01T13:39:30.369Z,5960
2018-03-01T13:40:30.115Z,6032
2018-03-01T13:41:29.845Z,6140
2018-03-01T13:42:29.830Z,6452
2018-03-01T13:43:30.062Z,6476
2018-03-01T13:44:29.587Z,6460
2018-03-01T13:45:31.093Z,6516
2018-03-01T13:46:30.306Z,6436
2018-03-01T13:47:30.277Z,6364
2018-03-01T13:48:30.265Z,6332
2018-03-01T13:49:30.305Z,6320
2018-03-01T13:50:30.258Z,6276
2018-03-01T13:51:30.239Z,6316
2018-03-01T13:52:29.983Z,6300
2018-03-01T13:53:30.269Z,6308
2018-03-01T13:54:30.216Z,6288
2018-03-01T13:55:29.686Z,6224
2018-03-01T13:56:30.200Z,6132
2018-03-01T13:57:29.671Z,6092
2018-03-01T13:58:29.907Z,6060
2018-03-01T13:59:29.932Z,6064
2018-03-01T14:00:29.942Z,6072
2018-03-01T14:01:29.872Z,6084
2018-03-01T14:02:30.136Z,6144
2018-03-01T14:03:29.873Z,6136
2018-03-01T14:04:29.886Z,6180
2018-03-01T14:05:30.159Z,6268
2018-03-01T14:06:29.838Z,6304
2018-03-01T14:07:29.560Z,6308
2018-03-01T14:08:30.161Z,6364
2018-03-01T14:09:29.820Z,6360
2018-03-01T14:10:29.931Z,6340
2018-03-01T14:11:30.023Z,6360
2018-03-01T14:12:29.772Z,6364
2018-03-01T14:13:30.003Z,6352
2018-03-01T14:14:29.999Z,6324
2018-03-01T14:15:34.540Z,6324
2018-03-01T14:16:29.725Z,6336
2018-03-01T14:17:29.462Z,6308
2018-03-01T14:18:29.708Z,6272
2018-03-01T14:19:29.694Z,6180
2018-03-01T14:20:29.938Z,6092
2018-03-01T14:21:29.674Z,6016
2018-03-01T14:22:29.408Z,5920
2018-03-01T14:23:29.917Z,5824
2018-03-01T14:24:29.907Z,5748